sensor_id;sensor_type;location;lat;lon;timestamp;P1;durP1;ratioP1;P2;durP2;ratioP2
75508;SDS011;64214;47.250;11.332;2022-12-29T00:00:11;3.22;;;1.90;;
75508;SDS011;64214;47.250;11.332;2022-12-29T00:00:25;4.33;;;2.37;;
75508;SDS011;64214;47.250;11.332;2022-12-29T00:00:36;3.87;;;2.13;;
75508;SDS011;64214;47.250;11.332;2022-12-29T00:00:47;3.50;;;1.93;;
75508;SDS011;64214;47.250;11.332;2022-12-29T00:01:01;2.93;;;1.63;;
75508;SDS011;64214;47.250;11.332;2022-12-29T00:01:12;4.30;;;2.00;;
75508;SDS011;64214;47.250;11.332;2022-12-29T00:01:23;4.47;;;2.00;;
75508;SDS011;64214;47.250;11.332;2022-12-29T00:01:35;3.30;;;1.83;;
75508;SDS011;64214;47.250;11.332;2022-12-29T00:01:47;2.40;;;1.58;;
75508;SDS011;64214;47.250;11.332;2022-12-29T00:01:58;2.25;;;1.63;;
75508;SDS011;64214;47.250;11.332;2022-12-29T00:02:09;2.25;;;1.60;;
75508;SDS011;64214;47.250;11.332;2022-12-29T00:02:20;3.08;;;1.67;;
75508;SDS011;64214;47.250;11.332;2022-12-29T00:02:31;3.17;;;1.70;;
75508;SDS011;64214;47.250;11.332;2022-12-29T00:02:42;3.50;;;1.70;;
75508;SDS011;64214;47.250;11.332;2022-12-29T00:02:54;3.20;;;1.70;;
75508;SDS011;64214;47.250;11.332;2022-12-29T00:03:05;3.25;;;1.88;;
75508;SDS011;64214;47.250;11.332;2022-12-29T00:03:16;2.95;;;1.95;;
75508;SDS011;64214;47.250;11.332;2022-12-29T00:03:27;3.10;;;2.08;;
75508;SDS011;64214;47.250;11.332;2022-12-29T00:03:38;2.95;;;2.00;;
75508;SDS011;64214;47.250;11.332;2022-12-29T00:03:49;2.95;;;1.98;;
75508;SDS011;64214;47.250;11.332;2022-12-29T00:04:00;2.83;;;2.05;;
75508;SDS011;64214;47.250;11.332;2022-12-29T00:04:12;2.83;;;2.10;;
75508;SDS011;64214;47.250;11.332;2022-12-29T00:04:24;2.55;;;2.05;;
75508;SDS011;64214;47.250;11.332;2022-12-29T00:04:36;2.83;;;2.00;;
75508;SDS011;64214;47.250;11.332;2022-12-29T00:04:48;3.35;;;2.00;;
75508;SDS011;64214;47.250;11.332;2022-12-29T00:05:00;4.10;;;2.08;;
75508;SDS011;64214;47.250;11.332;2022-12-29T00:05:11;3.50;;;1.80;;
75508;SDS011;64214;47.250;11.332;2022-12-29T00:05:23;3.38;;;1.90;;
75508;SDS011;64214;47.250;11.332;2022-12-29T00:05:34;3.30;;;1.80;;
75508;SDS011;64214;47.250;11.332;2022-12-29T00:05:45;3.25;;;1.92;;
75508;SDS011;64214;47.250;11.332;2022-12-29T00:06:05;2.40;;;2.00;;
75508;SDS011;64214;47.250;11.332;2022-12-29T00:06:16;2.70;;;1.80;;
75508;SDS011;64214;47.250;11.332;2022-12-29T00:06:27;2.65;;;1.60;;
75508;SDS011;64214;47.250;11.332;2022-12-29T00:06:39;2.42;;;1.50;;
75508;SDS011;64214;47.250;11.332;2022-12-29T00:06:51;2.60;;;1.50;;
75508;SDS011;64214;47.250;11.332;2022-12-29T00:07:03;2.50;;;1.40;;
75508;SDS011;64214;47.250;11.332;2022-12-29T00:07:17;2.25;;;1.30;;
75508;SDS011;64214;47.250;11.332;2022-12-29T00:07:29;1.95;;;1.35;;
75508;SDS011;64214;47.250;11.332;2022-12-29T00:07:40;1.67;;;1.30;;
75508;SDS011;64214;47.250;11.332;2022-12-29T00:07:51;1.80;;;1.40;;
75508;SDS011;64214;47.250;11.332;2022-12-29T00:08:02;2.58;;;1.70;;
75508;SDS011;64214;47.250;11.332;2022-12-29T00:08:13;2.72;;;1.60;;
75508;SDS011;64214;47.250;11.332;2022-12-29T00:08:24;2.63;;;1.58;;
75508;SDS011;64214;47.250;11.332;2022-12-29T00:08:49;2.60;;;1.40;;
75508;SDS011;64214;47.250;11.332;2022-12-29T00:09:01;2.78;;;1.40;;
75508;SDS011;64214;47.250;11.332;2022-12-29T00:09:13;2.47;;;1.48;;
75508;SDS011;64214;47.250;11.332;2022-12-29T00:09:25;2.08;;;1.45;;
75508;SDS011;64214;47.250;11.332;2022-12-29T00:09:36;2.00;;;1.30;;
75508;SDS011;64214;47.250;11.332;2022-12-29T00:09:47;1.95;;;1.30;;
75508;SDS011;64214;47.250;11.332;2022-12-29T00:09:59;2.03;;;1.40;;
75508;SDS011;64214;47.250;11.332;2022-12-29T00:10:10;2.20;;;1.50;;
75508;SDS011;64214;47.250;11.332;2022-12-29T00:10:21;2.30;;;1.50;;
75508;SDS011;64214;47.250;11.332;2022-12-29T00:10:32;2.40;;;1.50;;
75508;SDS011;64214;47.250;11.332;2022-12-29T00:10:43;2.05;;;1.30;;
75508;SDS011;64214;47.250;11.332;2022-12-29T00:10:55;2.20;;;1.20;;
75508;SDS011;64214;47.250;11.332;2022-12-29T00:11:09;2.30;;;1.20;;
75508;SDS011;64214;47.250;11.332;2022-12-29T00:11:23;2.08;;;1.30;;
75508;SDS011;64214;47.250;11.332;2022-12-29T00:11:35;2.55;;;1.65;;
75508;SDS011;64214;47.250;11.332;2022-12-29T00:11:46;3.00;;;1.70;;
75508;SDS011;64214;47.250;11.332;2022-12-29T00:11:58;2.92;;;1.65;;
75508;SDS011;64214;47.250;11.332;2022-12-29T00:12:09;2.63;;;1.67;;
75508;SDS011;64214;47.250;11.332;2022-12-29T00:12:21;2.30;;;1.70;;
75508;SDS011;64214;47.250;11.332;2022-12-29T00:12:32;2.13;;;1.60;;
75508;SDS011;64214;47.250;11.332;2022-12-29T00:13:03;2.67;;;1.63;;
75508;SDS011;64214;47.250;11.332;2022-12-29T00:13:32;2.88;;;1.65;;
75508;SDS011;64214;47.250;11.332;2022-12-29T00:14:02;1.70;;;1.30;;
75508;SDS011;64214;47.250;11.332;2022-12-29T00:14:31;2.47;;;1.43;;
75508;SDS011;64214;47.250;11.332;2022-12-29T00:15:01;2.28;;;1.55;;
75508;SDS011;64214;47.250;11.332;2022-12-29T00:15:31;1.95;;;1.40;;
75508;SDS011;64214;47.250;11.332;2022-12-29T00:15:49;1.95;;;1.35;;
75508;SDS011;64214;47.250;11.332;2022-12-29T00:16:00;2.13;;;1.40;;
75508;SDS011;64214;47.250;11.332;2022-12-29T00:16:11;2.25;;;1.35;;
75508;SDS011;64214;47.250;11.332;2022-12-29T00:16:22;2.40;;;1.30;;
75508;SDS011;64214;47.250;11.332;2022-12-29T00:16:34;1.77;;;1.13;;
75508;SDS011;64214;47.250;11.332;2022-12-29T00:16:46;1.50;;;1.10;;
75508;SDS011;64214;47.250;11.332;2022-12-29T00:16:57;1.52;;;1.13;;
75508;SDS011;64214;47.250;11.332;2022-12-29T00:17:08;2.00;;;1.20;;
75508;SDS011;64214;47.250;11.332;2022-12-29T00:17:19;2.20;;;1.20;;
75508;SDS011;64214;47.250;11.332;2022-12-29T00:17:30;1.98;;;1.02;;
75508;SDS011;64214;47.250;11.332;2022-12-29T00:17:41;2.63;;;1.15;;
75508;SDS011;64214;47.250;11.332;2022-12-29T00:17:52;2.95;;;1.40;;
75508;SDS011;64214;47.250;11.332;2022-12-29T00:18:04;3.15;;;1.50;;
75508;SDS011;64214;47.250;11.332;2022-12-29T00:18:15;2.50;;;1.40;;
75508;SDS011;64214;47.250;11.332;2022-12-29T00:18:26;2.25;;;1.35;;
75508;SDS011;64214;47.250;11.332;2022-12-29T00:18:38;2.72;;;1.52;;
75508;SDS011;64214;47.250;11.332;2022-12-29T00:18:49;2.92;;;1.50;;
75508;SDS011;64214;47.250;11.332;2022-12-29T00:19:00;2.88;;;1.40;;
75508;SDS011;64214;47.250;11.332;2022-12-29T00:19:12;2.13;;;1.27;;
75508;SDS011;64214;47.250;11.332;2022-12-29T00:19:41;2.22;;;1.20;;
75508;SDS011;64214;47.250;11.332;2022-12-29T00:20:11;3.20;;;1.58;;
75508;SDS011;64214;47.250;11.332;2022-12-29T00:20:42;2.00;;;1.60;;
75508;SDS011;64214;47.250;11.332;2022-12-29T00:21:15;1.80;;;1.30;;
75508;SDS011;64214;47.250;11.332;2022-12-29T00:21:46;2.10;;;1.17;;
75508;SDS011;64214;47.250;11.332;2022-12-29T00:22:16;1.52;;;1.20;;
75508;SDS011;64214;47.250;11.332;2022-12-29T00:22:46;2.20;;;1.45;;
75508;SDS011;64214;47.250;11.332;2022-12-29T00:23:16;2.40;;;1.63;;
75508;SDS011;64214;47.250;11.332;2022-12-29T00:24:06;3.92;;;1.70;;
75508;SDS011;64214;47.250;11.332;2022-12-29T00:24:32;2.38;;;1.55;;
75508;SDS011;64214;47.250;11.332;2022-12-29T00:25:02;2.03;;;1.38;;
75508;SDS011;64214;47.250;11.332;2022-12-29T00:25:35;2.30;;;1.60;;
75508;SDS011;64214;47.250;11.332;2022-12-29T00:26:09;2.40;;;1.48;;
75508;SDS011;64214;47.250;11.332;2022-12-29T00:26:42;1.80;;;1.38;;
75508;SDS011;64214;47.250;11.332;2022-12-29T00:27:12;2.58;;;1.52;;
75508;SDS011;64214;47.250;11.332;2022-12-29T00:27:41;2.13;;;1.50;;
75508;SDS011;64214;47.250;11.332;2022-12-29T00:28:11;3.13;;;1.70;;
75508;SDS011;64214;47.250;11.332;2022-12-29T00:28:41;2.50;;;1.50;;
75508;SDS011;64214;47.250;11.332;2022-12-29T00:29:10;2.28;;;1.30;;
75508;SDS011;64214;47.250;11.332;2022-12-29T00:29:40;2.08;;;1.25;;
75508;SDS011;64214;47.250;11.332;2022-12-29T00:30:10;2.60;;;1.40;;
75508;SDS011;64214;47.250;11.332;2022-12-29T00:30:45;2.83;;;1.50;;
75508;SDS011;64214;47.250;11.332;2022-12-29T00:31:14;3.08;;;1.73;;
75508;SDS011;64214;47.250;11.332;2022-12-29T00:31:44;3.75;;;1.55;;
75508;SDS011;64214;47.250;11.332;2022-12-29T00:32:13;2.25;;;1.58;;
75508;SDS011;64214;47.250;11.332;2022-12-29T00:32:43;2.33;;;1.58;;
75508;SDS011;64214;47.250;11.332;2022-12-29T00:33:14;3.00;;;1.42;;
75508;SDS011;64214;47.250;11.332;2022-12-29T00:33:44;2.28;;;1.40;;
75508;SDS011;64214;47.250;11.332;2022-12-29T00:34:14;2.60;;;1.50;;
75508;SDS011;64214;47.250;11.332;2022-12-29T00:34:44;2.33;;;1.50;;
75508;SDS011;64214;47.250;11.332;2022-12-29T00:35:15;2.70;;;1.20;;
75508;SDS011;64214;47.250;11.332;2022-12-29T00:35:38;1.63;;;1.05;;
75508;SDS011;64214;47.250;11.332;2022-12-29T00:35:52;1.75;;;1.15;;
75508;SDS011;64214;47.250;11.332;2022-12-29T00:36:39;2.45;;;1.30;;
75508;SDS011;64214;47.250;11.332;2022-12-29T00:36:52;1.80;;;1.25;;
75508;SDS011;64214;47.250;11.332;2022-12-29T00:37:03;1.92;;;1.25;;
75508;SDS011;64214;47.250;11.332;2022-12-29T00:37:15;2.00;;;1.20;;
75508;SDS011;64214;47.250;11.332;2022-12-29T00:37:26;1.95;;;1.10;;
75508;SDS011;64214;47.250;11.332;2022-12-29T00:37:58;1.33;;;0.95;;
75508;SDS011;64214;47.250;11.332;2022-12-29T00:38:32;2.58;;;1.30;;
75508;SDS011;64214;47.250;11.332;2022-12-29T00:39:05;2.53;;;1.40;;
75508;SDS011;64214;47.250;11.332;2022-12-29T00:39:37;1.50;;;1.20;;
75508;SDS011;64214;47.250;11.332;2022-12-29T00:40:06;1.58;;;1.20;;
75508;SDS011;64214;47.250;11.332;2022-12-29T00:40:37;2.25;;;1.35;;
75508;SDS011;64214;47.250;11.332;2022-12-29T00:41:06;1.95;;;1.25;;
75508;SDS011;64214;47.250;11.332;2022-12-29T00:41:36;2.33;;;1.33;;
75508;SDS011;64214;47.250;11.332;2022-12-29T00:42:06;2.38;;;1.20;;
75508;SDS011;64214;47.250;11.332;2022-12-29T00:42:37;1.98;;;1.30;;
75508;SDS011;64214;47.250;11.332;2022-12-29T00:43:20;2.40;;;1.40;;
75508;SDS011;64214;47.250;11.332;2022-12-29T00:43:50;2.33;;;1.45;;
75508;SDS011;64214;47.250;11.332;2022-12-29T00:44:16;2.47;;;1.52;;
75508;SDS011;64214;47.250;11.332;2022-12-29T00:44:28;2.65;;;1.50;;
75508;SDS011;64214;47.250;11.332;2022-12-29T00:44:39;3.13;;;1.60;;
75508;SDS011;64214;47.250;11.332;2022-12-29T00:44:50;3.05;;;1.60;;
75508;SDS011;64214;47.250;11.332;2022-12-29T00:45:02;3.05;;;1.60;;
75508;SDS011;64214;47.250;11.332;2022-12-29T00:45:14;2.78;;;1.60;;
75508;SDS011;64214;47.250;11.332;2022-12-29T00:45:25;2.85;;;1.65;;
75508;SDS011;64214;47.250;11.332;2022-12-29T00:45:36;2.88;;;1.80;;
75508;SDS011;64214;47.250;11.332;2022-12-29T00:45:48;2.97;;;1.90;;
75508;SDS011;64214;47.250;11.332;2022-12-29T00:45:59;2.65;;;1.95;;
75508;SDS011;64214;47.250;11.332;2022-12-29T00:46:11;2.70;;;1.98;;
75508;SDS011;64214;47.250;11.332;2022-12-29T00:46:22;2.53;;;1.98;;
75508;SDS011;64214;47.250;11.332;2022-12-29T00:46:33;2.60;;;2.00;;
75508;SDS011;64214;47.250;11.332;2022-12-29T00:46:45;2.53;;;2.10;;
75508;SDS011;64214;47.250;11.332;2022-12-29T00:46:56;2.97;;;2.20;;
75508;SDS011;64214;47.250;11.332;2022-12-29T00:47:07;3.22;;;2.30;;
75508;SDS011;64214;47.250;11.332;2022-12-29T00:47:18;3.63;;;2.40;;
75508;SDS011;64214;47.250;11.332;2022-12-29T00:47:29;3.75;;;2.33;;
75508;SDS011;64214;47.250;11.332;2022-12-29T00:47:40;3.63;;;2.28;;
75508;SDS011;64214;47.250;11.332;2022-12-29T00:47:51;3.08;;;2.10;;
75508;SDS011;64214;47.250;11.332;2022-12-29T00:48:03;2.53;;;2.00;;
75508;SDS011;64214;47.250;11.332;2022-12-29T00:48:14;2.80;;;2.00;;
75508;SDS011;64214;47.250;11.332;2022-12-29T00:48:25;2.90;;;2.00;;
75508;SDS011;64214;47.250;11.332;2022-12-29T00:48:55;3.35;;;1.90;;
75508;SDS011;64214;47.250;11.332;2022-12-29T00:49:25;2.92;;;1.70;;
75508;SDS011;64214;47.250;11.332;2022-12-29T00:49:42;2.72;;;1.80;;
75508;SDS011;64214;47.250;11.332;2022-12-29T00:49:53;3.10;;;1.80;;
75508;SDS011;64214;47.250;11.332;2022-12-29T00:50:06;3.47;;;1.70;;
75508;SDS011;64214;47.250;11.332;2022-12-29T00:50:17;3.67;;;1.73;;
75508;SDS011;64214;47.250;11.332;2022-12-29T00:50:29;3.10;;;1.60;;
75508;SDS011;64214;47.250;11.332;2022-12-29T00:50:40;2.35;;;1.48;;
75508;SDS011;64214;47.250;11.332;2022-12-29T00:50:55;2.30;;;1.60;;
75508;SDS011;64214;47.250;11.332;2022-12-29T00:51:07;2.28;;;1.50;;
75508;SDS011;64214;47.250;11.332;2022-12-29T00:51:18;2.03;;;1.50;;
75508;SDS011;64214;47.250;11.332;2022-12-29T00:51:29;2.33;;;1.70;;
75508;SDS011;64214;47.250;11.332;2022-12-29T00:51:41;2.67;;;1.73;;
75508;SDS011;64214;47.250;11.332;2022-12-29T00:51:52;2.65;;;1.77;;
75508;SDS011;64214;47.250;11.332;2022-12-29T00:52:06;2.30;;;1.70;;
75508;SDS011;64214;47.250;11.332;2022-12-29T00:52:18;1.77;;;1.53;;
75508;SDS011;64214;47.250;11.332;2022-12-29T00:52:30;2.20;;;1.60;;
75508;SDS011;64214;47.250;11.332;2022-12-29T00:52:41;2.55;;;1.75;;
75508;SDS011;64214;47.250;11.332;2022-12-29T00:52:52;2.80;;;1.67;;
75508;SDS011;64214;47.250;11.332;2022-12-29T00:53:03;2.60;;;1.50;;
75508;SDS011;64214;47.250;11.332;2022-12-29T00:53:14;2.60;;;1.50;;
75508;SDS011;64214;47.250;11.332;2022-12-29T00:53:25;2.67;;;1.60;;
75508;SDS011;64214;47.250;11.332;2022-12-29T00:53:36;2.55;;;1.65;;
75508;SDS011;64214;47.250;11.332;2022-12-29T00:53:48;2.47;;;1.55;;
75508;SDS011;64214;47.250;11.332;2022-12-29T00:53:59;2.28;;;1.48;;
75508;SDS011;64214;47.250;11.332;2022-12-29T00:54:10;2.10;;;1.42;;
75508;SDS011;64214;47.250;11.332;2022-12-29T00:54:22;2.15;;;1.50;;
75508;SDS011;64214;47.250;11.332;2022-12-29T00:54:33;2.63;;;1.60;;
75508;SDS011;64214;47.250;11.332;2022-12-29T00:54:49;3.25;;;1.75;;
75508;SDS011;64214;47.250;11.332;2022-12-29T00:55:00;2.75;;;1.77;;
75508;SDS011;64214;47.250;11.332;2022-12-29T00:55:11;2.10;;;1.70;;
75508;SDS011;64214;47.250;11.332;2022-12-29T00:55:22;2.38;;;1.73;;
75508;SDS011;64214;47.250;11.332;2022-12-29T00:55:36;3.15;;;1.90;;
75508;SDS011;64214;47.250;11.332;2022-12-29T00:55:47;3.00;;;1.88;;
75508;SDS011;64214;47.250;11.332;2022-12-29T00:55:59;2.63;;;1.67;;
75508;SDS011;64214;47.250;11.332;2022-12-29T00:56:10;2.85;;;1.67;;
75508;SDS011;64214;47.250;11.332;2022-12-29T00:56:21;2.70;;;1.70;;
75508;SDS011;64214;47.250;11.332;2022-12-29T00:56:32;2.70;;;1.67;;
75508;SDS011;64214;47.250;11.332;2022-12-29T00:56:48;2.75;;;1.55;;
75508;SDS011;64214;47.250;11.332;2022-12-29T00:57:02;2.45;;;1.52;;
75508;SDS011;64214;47.250;11.332;2022-12-29T00:57:15;2.20;;;1.70;;
75508;SDS011;64214;47.250;11.332;2022-12-29T00:57:26;2.10;;;1.75;;
75508;SDS011;64214;47.250;11.332;2022-12-29T00:57:37;2.55;;;1.73;;
75508;SDS011;64214;47.250;11.332;2022-12-29T00:57:48;2.60;;;1.65;;
75508;SDS011;64214;47.250;11.332;2022-12-29T00:57:59;2.72;;;1.60;;
75508;SDS011;64214;47.250;11.332;2022-12-29T00:58:10;2.42;;;1.60;;
75508;SDS011;64214;47.250;11.332;2022-12-29T00:58:21;2.28;;;1.42;;
75508;SDS011;64214;47.250;11.332;2022-12-29T00:58:32;2.30;;;1.35;;
75508;SDS011;64214;47.250;11.332;2022-12-29T00:58:44;2.47;;;1.40;;
75508;SDS011;64214;47.250;11.332;2022-12-29T00:58:55;2.53;;;1.40;;
75508;SDS011;64214;47.250;11.332;2022-12-29T00:59:12;2.38;;;1.30;;
75508;SDS011;64214;47.250;11.332;2022-12-29T00:59:23;2.45;;;1.33;;
75508;SDS011;64214;47.250;11.332;2022-12-29T00:59:38;2.42;;;1.55;;
75508;SDS011;64214;47.250;11.332;2022-12-29T00:59:50;2.33;;;1.50;;
75508;SDS011;64214;47.250;11.332;2022-12-29T01:00:01;2.55;;;1.40;;
75508;SDS011;64214;47.250;11.332;2022-12-29T01:00:14;2.15;;;1.20;;
75508;SDS011;64214;47.250;11.332;2022-12-29T01:00:25;1.70;;;1.05;;
75508;SDS011;64214;47.250;11.332;2022-12-29T01:00:36;1.40;;;0.90;;
75508;SDS011;64214;47.250;11.332;2022-12-29T01:00:47;1.65;;;1.13;;
75508;SDS011;64214;47.250;11.332;2022-12-29T01:01:05;1.98;;;1.33;;
75508;SDS011;64214;47.250;11.332;2022-12-29T01:01:17;2.22;;;1.13;;
75508;SDS011;64214;47.250;11.332;2022-12-29T01:01:29;2.22;;;1.00;;
75508;SDS011;64214;47.250;11.332;2022-12-29T01:01:41;2.42;;;1.13;;
75508;SDS011;64214;47.250;11.332;2022-12-29T01:01:52;1.95;;;1.10;;
75508;SDS011;64214;47.250;11.332;2022-12-29T01:02:05;1.90;;;1.10;;
75508;SDS011;64214;47.250;11.332;2022-12-29T01:02:16;2.33;;;1.10;;
75508;SDS011;64214;47.250;11.332;2022-12-29T01:02:27;2.45;;;1.00;;
75508;SDS011;64214;47.250;11.332;2022-12-29T01:02:38;2.20;;;1.02;;
75508;SDS011;64214;47.250;11.332;2022-12-29T01:02:50;1.83;;;1.10;;
75508;SDS011;64214;47.250;11.332;2022-12-29T01:03:01;1.52;;;1.20;;
75508;SDS011;64214;47.250;11.332;2022-12-29T01:03:12;1.85;;;1.17;;
75508;SDS011;64214;47.250;11.332;2022-12-29T01:03:23;1.88;;;1.00;;
75508;SDS011;64214;47.250;11.332;2022-12-29T01:03:35;2.22;;;1.10;;
75508;SDS011;64214;47.250;11.332;2022-12-29T01:03:47;2.15;;;1.25;;
75508;SDS011;64214;47.250;11.332;2022-12-29T01:03:58;1.67;;;1.20;;
75508;SDS011;64214;47.250;11.332;2022-12-29T01:04:09;1.73;;;1.00;;
75508;SDS011;64214;47.250;11.332;2022-12-29T01:04:21;2.30;;;1.00;;
75508;SDS011;64214;47.250;11.332;2022-12-29T01:04:33;2.65;;;1.15;;
75508;SDS011;64214;47.250;11.332;2022-12-29T01:04:45;2.70;;;1.20;;
75508;SDS011;64214;47.250;11.332;2022-12-29T01:04:56;2.20;;;1.10;;
75508;SDS011;64214;47.250;11.332;2022-12-29T01:05:07;1.83;;;1.00;;
75508;SDS011;64214;47.250;11.332;2022-12-29T01:05:19;1.75;;;1.02;;
75508;SDS011;64214;47.250;11.332;2022-12-29T01:05:30;1.88;;;1.10;;
75508;SDS011;64214;47.250;11.332;2022-12-29T01:05:41;2.00;;;1.10;;
75508;SDS011;64214;47.250;11.332;2022-12-29T01:05:52;2.17;;;1.20;;
75508;SDS011;64214;47.250;11.332;2022-12-29T01:06:04;2.22;;;1.20;;
75508;SDS011;64214;47.250;11.332;2022-12-29T01:06:17;2.00;;;1.15;;
75508;SDS011;64214;47.250;11.332;2022-12-29T01:06:29;1.52;;;1.10;;
75508;SDS011;64214;47.250;11.332;2022-12-29T01:06:40;1.40;;;1.02;;
75508;SDS011;64214;47.250;11.332;2022-12-29T01:06:52;1.50;;;1.02;;
75508;SDS011;64214;47.250;11.332;2022-12-29T01:07:04;1.25;;;1.00;;
75508;SDS011;64214;47.250;11.332;2022-12-29T01:07:15;1.55;;;1.05;;
75508;SDS011;64214;47.250;11.332;2022-12-29T01:07:28;1.52;;;1.08;;
75508;SDS011;64214;47.250;11.332;2022-12-29T01:07:39;1.88;;;1.10;;
75508;SDS011;64214;47.250;11.332;2022-12-29T01:07:51;1.75;;;1.13;;
75508;SDS011;64214;47.250;11.332;2022-12-29T01:08:02;2.17;;;1.20;;
75508;SDS011;64214;47.250;11.332;2022-12-29T01:08:14;2.20;;;1.40;;
75508;SDS011;64214;47.250;11.332;2022-12-29T01:08:26;1.95;;;1.38;;
75508;SDS011;64214;47.250;11.332;2022-12-29T01:08:38;1.92;;;1.30;;
75508;SDS011;64214;47.250;11.332;2022-12-29T01:08:50;2.13;;;1.33;;
75508;SDS011;64214;47.250;11.332;2022-12-29T01:09:21;2.45;;;1.40;;
75508;SDS011;64214;47.250;11.332;2022-12-29T01:09:52;1.95;;;1.20;;
75508;SDS011;64214;47.250;11.332;2022-12-29T01:10:21;1.77;;;1.15;;
75508;SDS011;64214;47.250;11.332;2022-12-29T01:10:32;1.83;;;1.20;;
75508;SDS011;64214;47.250;11.332;2022-12-29T01:10:44;2.08;;;1.25;;
75508;SDS011;64214;47.250;11.332;2022-12-29T01:11:05;2.10;;;1.30;;
75508;SDS011;64214;47.250;11.332;2022-12-29T01:11:18;2.20;;;1.45;;
75508;SDS011;64214;47.250;11.332;2022-12-29T01:11:29;2.22;;;1.45;;
75508;SDS011;64214;47.250;11.332;2022-12-29T01:11:40;2.03;;;1.40;;
75508;SDS011;64214;47.250;11.332;2022-12-29T01:11:51;2.08;;;1.42;;
75508;SDS011;64214;47.250;11.332;2022-12-29T01:12:03;1.92;;;1.40;;
75508;SDS011;64214;47.250;11.332;2022-12-29T01:12:15;2.10;;;1.40;;
75508;SDS011;64214;47.250;11.332;2022-12-29T01:12:26;2.10;;;1.40;;
75508;SDS011;64214;47.250;11.332;2022-12-29T01:12:54;1.80;;;1.15;;
75508;SDS011;64214;47.250;11.332;2022-12-29T01:13:05;1.70;;;1.10;;
75508;SDS011;64214;47.250;11.332;2022-12-29T01:13:16;1.70;;;1.10;;
75508;SDS011;64214;47.250;11.332;2022-12-29T01:13:27;1.65;;;1.17;;
75508;SDS011;64214;47.250;11.332;2022-12-29T01:13:39;1.92;;;1.20;;
75508;SDS011;64214;47.250;11.332;2022-12-29T01:13:51;2.08;;;1.20;;
75508;SDS011;64214;47.250;11.332;2022-12-29T01:14:03;2.38;;;1.30;;
75508;SDS011;64214;47.250;11.332;2022-12-29T01:14:15;2.15;;;1.30;;
75508;SDS011;64214;47.250;11.332;2022-12-29T01:14:27;2.10;;;1.40;;
75508;SDS011;64214;47.250;11.332;2022-12-29T01:14:38;2.10;;;1.30;;
75508;SDS011;64214;47.250;11.332;2022-12-29T01:14:49;2.22;;;1.40;;
75508;SDS011;64214;47.250;11.332;2022-12-29T01:15:00;2.58;;;1.40;;
75508;SDS011;64214;47.250;11.332;2022-12-29T01:15:12;2.65;;;1.58;;
75508;SDS011;64214;47.250;11.332;2022-12-29T01:15:25;2.47;;;1.50;;
75508;SDS011;64214;47.250;11.332;2022-12-29T01:15:37;2.67;;;1.60;;
75508;SDS011;64214;47.250;11.332;2022-12-29T01:15:51;2.55;;;1.50;;
75508;SDS011;64214;47.250;11.332;2022-12-29T01:16:02;1.83;;;1.35;;
75508;SDS011;64214;47.250;11.332;2022-12-29T01:16:14;1.38;;;1.17;;
75508;SDS011;64214;47.250;11.332;2022-12-29T01:16:26;1.25;;;1.00;;
75508;SDS011;64214;47.250;11.332;2022-12-29T01:16:37;1.58;;;1.10;;
75508;SDS011;64214;47.250;11.332;2022-12-29T01:16:48;2.20;;;1.33;;
75508;SDS011;64214;47.250;11.332;2022-12-29T01:17:00;2.50;;;1.40;;
75508;SDS011;64214;47.250;11.332;2022-12-29T01:17:11;2.13;;;1.33;;
75508;SDS011;64214;47.250;11.332;2022-12-29T01:17:23;1.70;;;1.10;;
75508;SDS011;64214;47.250;11.332;2022-12-29T01:17:34;1.80;;;1.00;;
75508;SDS011;64214;47.250;11.332;2022-12-29T01:17:46;1.65;;;1.10;;
75508;SDS011;64214;47.250;11.332;2022-12-29T01:17:57;1.90;;;1.30;;
75508;SDS011;64214;47.250;11.332;2022-12-29T01:18:08;1.95;;;1.30;;
75508;SDS011;64214;47.250;11.332;2022-12-29T01:18:20;2.05;;;1.20;;
75508;SDS011;64214;47.250;11.332;2022-12-29T01:18:31;2.10;;;1.20;;
75508;SDS011;64214;47.250;11.332;2022-12-29T01:18:43;1.80;;;1.20;;
75508;SDS011;64214;47.250;11.332;2022-12-29T01:18:55;1.95;;;1.20;;
75508;SDS011;64214;47.250;11.332;2022-12-29T01:19:06;1.75;;;1.10;;
75508;SDS011;64214;47.250;11.332;2022-12-29T01:19:17;1.75;;;1.00;;
75508;SDS011;64214;47.250;11.332;2022-12-29T01:19:29;1.90;;;1.00;;
75508;SDS011;64214;47.250;11.332;2022-12-29T01:19:40;2.05;;;1.30;;
75508;SDS011;64214;47.250;11.332;2022-12-29T01:19:51;2.72;;;1.40;;
75508;SDS011;64214;47.250;11.332;2022-12-29T01:20:03;2.67;;;1.40;;
75508;SDS011;64214;47.250;11.332;2022-12-29T01:20:15;2.53;;;1.20;;
75508;SDS011;64214;47.250;11.332;2022-12-29T01:20:26;1.80;;;1.23;;
75508;SDS011;64214;47.250;11.332;2022-12-29T01:20:39;2.15;;;1.30;;
75508;SDS011;64214;47.250;11.332;2022-12-29T01:20:50;2.20;;;1.38;;
75508;SDS011;64214;47.250;11.332;2022-12-29T01:21:02;2.28;;;1.42;;
75508;SDS011;64214;47.250;11.332;2022-12-29T01:21:15;1.92;;;1.33;;
75508;SDS011;64214;47.250;11.332;2022-12-29T01:21:26;2.30;;;1.38;;
75508;SDS011;64214;47.250;11.332;2022-12-29T01:21:37;2.20;;;1.30;;
75508;SDS011;64214;47.250;11.332;2022-12-29T01:21:48;1.90;;;1.20;;
75508;SDS011;64214;47.250;11.332;2022-12-29T01:21:59;1.67;;;1.00;;
75508;SDS011;64214;47.250;11.332;2022-12-29T01:22:12;2.58;;;1.10;;
75508;SDS011;64214;47.250;11.332;2022-12-29T01:22:23;2.72;;;1.20;;
75508;SDS011;64214;47.250;11.332;2022-12-29T01:22:35;2.47;;;1.17;;
75508;SDS011;64214;47.250;11.332;2022-12-29T01:22:46;1.85;;;1.10;;
75508;SDS011;64214;47.250;11.332;2022-12-29T01:22:57;1.55;;;1.00;;
75508;SDS011;64214;47.250;11.332;2022-12-29T01:23:09;2.15;;;0.98;;
75508;SDS011;64214;47.250;11.332;2022-12-29T01:23:20;1.92;;;1.00;;
75508;SDS011;64214;47.250;11.332;2022-12-29T01:23:31;1.95;;;1.02;;
75508;SDS011;64214;47.250;11.332;2022-12-29T01:23:42;1.95;;;1.20;;
75508;SDS011;64214;47.250;11.332;2022-12-29T01:23:54;2.05;;;1.20;;
75508;SDS011;64214;47.250;11.332;2022-12-29T01:24:05;2.05;;;1.23;;
75508;SDS011;64214;47.250;11.332;2022-12-29T01:24:16;2.90;;;1.47;;
75508;SDS011;64214;47.250;11.332;2022-12-29T01:24:30;2.90;;;1.42;;
75508;SDS011;64214;47.250;11.332;2022-12-29T01:24:41;1.95;;;1.20;;
75508;SDS011;64214;47.250;11.332;2022-12-29T01:24:53;2.20;;;1.30;;
75508;SDS011;64214;47.250;11.332;2022-12-29T01:25:04;2.13;;;1.30;;
75508;SDS011;64214;47.250;11.332;2022-12-29T01:25:16;2.00;;;1.40;;
75508;SDS011;64214;47.250;11.332;2022-12-29T01:25:27;1.85;;;1.38;;
75508;SDS011;64214;47.250;11.332;2022-12-29T01:25:38;1.90;;;1.40;;
75508;SDS011;64214;47.250;11.332;2022-12-29T01:25:49;1.70;;;1.38;;
75508;SDS011;64214;47.250;11.332;2022-12-29T01:26:22;1.73;;;1.35;;
75508;SDS011;64214;47.250;11.332;2022-12-29T01:26:32;1.90;;;1.48;;
75508;SDS011;64214;47.250;11.332;2022-12-29T01:26:43;1.70;;;1.40;;
75508;SDS011;64214;47.250;11.332;2022-12-29T01:26:54;1.75;;;1.35;;
75508;SDS011;64214;47.250;11.332;2022-12-29T01:27:06;2.00;;;1.25;;
75508;SDS011;64214;47.250;11.332;2022-12-29T01:27:17;2.17;;;1.20;;
75508;SDS011;64214;47.250;11.332;2022-12-29T01:27:28;1.83;;;1.08;;
75508;SDS011;64214;47.250;11.332;2022-12-29T01:27:39;1.50;;;1.05;;
75508;SDS011;64214;47.250;11.332;2022-12-29T01:27:50;1.45;;;1.15;;
75508;SDS011;64214;47.250;11.332;2022-12-29T01:28:01;2.13;;;1.35;;
75508;SDS011;64214;47.250;11.332;2022-12-29T01:28:12;2.20;;;1.42;;
75508;SDS011;64214;47.250;11.332;2022-12-29T01:28:24;2.53;;;1.50;;
75508;SDS011;64214;47.250;11.332;2022-12-29T01:28:35;2.28;;;1.50;;
75508;SDS011;64214;47.250;11.332;2022-12-29T01:28:49;1.60;;;1.40;;